Time;durP1;ratioP1;P1;durP2;ratioP2;P2;SDS_P1;SDS_P2;PMS_P1;PMS_P2;Temp;Humidity;BMP_temperature;BMP_pressure;BME280_temperature;BME280_humidity;BME280_pressure;Samples;Min_cycle;Max_cycle;Signal;HPM_P1;HPM_P2
2021/04/15 00:00:52;;;;;;;13.52;5.75;;;;;;;5.44;63.78;100074.09;4203675;33;33311;-96
2021/04/15 00:03:29;;;;;;;10.55;7.53;;;;;;;5.31;64.29;100073.59;4192457;34;34876;-87
2021/04/15 00:06:17;;;;;;;8.07;5.87;;;;;;;5.22;64.46;100075.28;4205661;34;33421;-91
2021/04/15 00:08:50;;;;;;;12.07;6.45;;;;;;;5.33;63.75;100076.97;4584621;28;33059;-95
2021/04/15 00:11:28;;;;;;;9.35;5.35;;;;;;;5.40;63.92;100066.50;4206952;34;31289;-95
2021/04/15 00:14:19;;;;;;;12.70;6.47;;;;;;;5.38;64.01;100063.13;4196889;33;32179;-82
2021/04/15 00:16:52;;;;;;;10.27;5.95;;;;;;;5.41;63.43;100060.16;4189584;34;34244;-90
2021/04/15 00:19:24;;;;;;;11.68;6.15;;;;;;;5.12;64.55;100061.94;4217176;34;33716;-84
2021/04/15 00:21:57;;;;;;;11.15;5.95;;;;;;;4.92;65.66;100068.31;4218197;34;33254;-86
2021/04/15 00:24:34;;;;;;;10.85;5.93;;;;;;;5.19;64.74;100058.66;4218005;34;33597;-82
2021/04/15 00:27:12;;;;;;;11.95;7.07;;;;;;;5.17;65.10;100066.84;4363826;28;35518;-96
2021/04/15 00:29:44;;;;;;;9.73;6.22;;;;;;;5.39;64.46;100054.94;4363512;28;33625;-81
2021/04/15 00:32:16;;;;;;;9.73;6.43;;;;;;;5.28;64.55;100052.44;4250987;28;33143;-84
2021/04/15 00:34:49;;;;;;;9.10;6.32;;;;;;;5.37;63.87;100054.22;4215350;33;33559;-82
2021/04/15 00:37:22;;;;;;;10.93;6.35;;;;;;;5.42;64.44;100053.78;4213203;34;33729;-82
2021/04/15 00:40:04;;;;;;;9.13;5.82;;;;;;;5.22;64.89;100048.50;4234385;28;36916;-82
2021/04/15 00:42:37;;;;;;;9.32;5.68;;;;;;;5.44;63.79;100051.81;4214550;33;33140;-96
2021/04/15 00:45:18;;;;;;;8.50;5.87;;;;;;;5.29;64.52;100060.31;4214698;34;33700;-96
2021/04/15 00:48:38;;;;;;;12.95;6.10;;;;;;;5.24;64.78;100061.75;4206026;33;34422;-81
2021/04/15 00:51:45;;;;;;;12.93;6.65;;;;;;;5.24;64.81;100059.94;4226439;28;34493;-81
2021/04/15 00:54:32;;;;;;;8.55;5.95;;;;;;;5.18;65.25;100054.28;4170100;34;33545;-81
2021/04/15 00:57:11;;;;;;;11.63;5.87;;;;;;;5.35;64.15;100058.91;4261869;28;35197;-82
2021/04/15 00:59:43;;;;;;;10.20;6.27;;;;;;;5.36;64.01;100060.59;4187679;34;33700;-81
2021/04/15 01:02:19;;;;;;;13.00;7.35;;;;;;;5.36;64.20;100057.06;4193509;34;34546;-82
2021/04/15 01:04:57;;;;;;;12.00;7.00;;;;;;;5.22;64.49;100064.56;4221800;28;33973;-81
2021/04/15 01:07:29;;;;;;;9.48;6.12;;;;;;;5.10;65.37;100060.38;4273727;28;33897;-81
2021/04/15 01:10:03;;;;;;;8.85;6.00;;;;;;;5.18;65.07;100062.34;4228547;33;34401;-83
2021/04/15 01:13:03;;;;;;;10.45;7.15;;;;;;;5.15;64.93;100049.22;4222435;33;33770;-95
2021/04/15 01:16:15;;;;;;;19.23;7.93;;;;;;;4.97;65.35;100049.12;4233863;33;33594;-95
2021/04/15 01:19:01;;;;;;;7.65;5.60;;;;;;;5.02;65.43;100052.22;4212830;33;33642;-95
2021/04/15 01:22:06;;;;;;;13.32;5.80;;;;;;;5.04;65.39;100055.59;4222185;33;35345;-95
2021/04/15 01:25:22;;;;;;;10.65;5.85;;;;;;;4.69;66.63;100044.50;4256529;28;34243;-89
2021/04/15 01:28:09;;;;;;;11.43;7.40;;;;;;;4.68;67.27;100044.66;4310121;28;31541;-95
2021/04/15 01:30:44;;;;;;;13.05;6.87;;;;;;;4.69;67.23;100047.19;4209261;34;34698;-82
2021/04/15 01:33:28;;;;;;;9.20;5.97;;;;;;;4.77;66.71;100044.66;4204276;28;34610;31
2021/04/15 01:36:12;;;;;;;10.15;6.68;;;;;;;4.73;67.20;100047.72;4232238;29;33945;-81
2021/04/15 01:38:50;;;;;;;10.15;6.55;;;;;;;4.77;67.07;100041.97;4208060;33;33195;-96
2021/04/15 01:41:46;;;;;;;9.20;7.00;;;;;;;5.12;66.06;100037.81;4173812;34;34004;-95
2021/04/15 01:44:28;;;;;;;11.95;6.80;;;;;;;5.13;65.80;100028.78;4195451;34;35024;-95
2021/04/15 01:47:06;;;;;;;10.15;6.78;;;;;;;5.13;65.97;100027.94;4206219;34;33900;-86
2021/04/15 01:49:41;;;;;;;11.00;6.85;;;;;;;4.92;66.17;100025.44;4203647;34;34112;-81
2021/04/15 01:52:39;;;;;;;11.37;7.03;;;;;;;4.92;66.43;100037.00;4255153;28;33745;31
2021/04/15 01:55:42;;;;;;;12.48;6.40;;;;;;;4.48;68.38;100025.09;4207994;33;34406;-96
2021/04/15 01:58:20;;;;;;;9.02;6.53;;;;;;;4.59;68.21;100024.91;4199481;33;34562;-82
2021/04/15 02:00:58;;;;;;;10.93;6.47;;;;;;;4.73;67.26;100024.50;4222132;33;33380;-94
2021/04/15 02:03:36;;;;;;;10.65;6.30;;;;;;;4.86;67.38;100026.03;4215383;33;33737;-90
2021/04/15 02:06:21;;;;;;;13.62;6.78;;;;;;;4.88;67.18;100021.34;4207710;33;36047;-82
2021/04/15 02:09:05;;;;;;;12.05;7.30;;;;;;;4.84;67.10;100023.50;4220630;33;33725;-95
2021/04/15 02:11:47;;;;;;;13.00;6.93;;;;;;;4.78;67.58;100030.25;4197784;33;33813;-91
2021/04/15 02:14:24;;;;;;;12.80;6.37;;;;;;;4.85;67.41;100032.34;4210521;33;34709;-81
2021/04/15 02:17:02;;;;;;;12.75;7.40;;;;;;;5.00;66.66;100028.25;4210862;33;33969;-96
2021/04/15 02:20:02;;;;;;;11.32;6.05;;;;;;;5.10;66.76;100031.78;4211171;33;36316;-82
2021/04/15 02:22:41;;;;;;;16.90;6.80;;;;;;;4.98;66.78;100029.38;4211974;33;34082;-95
2021/04/15 02:25:41;;;;;;;8.77;6.93;;;;;;;4.96;66.42;100021.50;4223024;33;34277;-96
2021/04/15 02:28:18;;;;;;;10.10;5.93;;;;;;;4.94;66.97;100028.84;4218773;33;34657;-84
2021/04/15 02:30:59;;;;;;;9.40;6.53;;;;;;;4.91;67.07;100031.78;4204367;28;34229;-83
2021/04/15 02:33:40;;;;;;;9.10;6.28;;;;;;;5.01;67.15;100029.94;4206986;34;32620;-96
2021/04/15 02:36:14;;;;;;;9.55;6.95;;;;;;;5.08;66.46;100033.72;4278795;28;33567;-93
2021/04/15 02:38:53;;;;;;;9.43;6.95;;;;;;;4.95;67.12;100033.19;4324888;28;33713;-94
2021/04/15 02:41:28;;;;;;;8.65;7.05;;;;;;;4.86;67.79;100037.56;4246131;28;34663;-95
2021/04/15 02:44:16;;;;;;;8.05;6.15;;;;;;;5.05;67.41;100035.88;4254495;28;34604;31
2021/04/15 02:47:11;;;;;;;7.93;6.47;;;;;;;4.75;68.08;100027.88;4480172;28;33369;-89
2021/04/15 02:49:47;;;;;;;11.02;6.97;;;;;;;5.06;67.37;100026.81;4421044;28;33456;-94
2021/04/15 02:52:48;;;;;;;10.10;7.75;;;;;;;5.27;66.57;100027.47;4249921;28;33528;-96
2021/04/15 02:56:07;;;;;;;9.80;6.87;;;;;;;4.99;67.08;100017.69;4289518;28;34055;-83
2021/04/15 02:58:52;;;;;;;11.52;7.62;;;;;;;4.81;68.42;100034.50;4328022;28;34932;-96
2021/04/15 03:02:03;;;;;;;8.98;6.65;;;;;;;4.62;68.93;100027.31;4297181;28;33956;-96
2021/04/15 03:11:33;;;;;;;10.38;6.82;;;;;;;4.82;68.20;100032.66;4538086;28;20808;-83
2021/04/15 03:14:13;;;;;;;11.10;8.35;;;;;;;4.99;67.62;100031.91;4215651;34;34688;-85
2021/04/15 03:16:48;;;;;;;10.50;6.68;;;;;;;4.75;68.63;100027.88;4304544;28;33264;-84
2021/04/15 03:19:33;;;;;;;9.92;7.33;;;;;;;4.83;67.97;100047.75;4271882;28;34698;-95
2021/04/15 03:25:57;;;;;;;10.32;8.00;;;;;;;4.75;68.23;100038.56;4202461;34;34345;-95
2021/04/15 03:28:34;;;;;;;9.32;7.15;;;;;;;4.91;68.02;100038.00;4223480;28;33614;-83
2021/04/15 03:31:14;;;;;;;9.20;7.10;;;;;;;4.89;67.70;100036.44;4209771;34;33265;-96
2021/04/15 03:33:53;;;;;;;10.90;7.10;;;;;;;4.81;68.17;100031.81;4189079;34;34695;-96
2021/04/15 03:36:29;;;;;;;11.70;7.22;;;;;;;4.95;67.76;100035.88;4207829;28;34805;-83
2021/04/15 03:39:13;;;;;;;9.60;7.53;;;;;;;4.98;67.59;100029.38;4201882;28;34486;-96
2021/04/15 03:41:52;;;;;;;14.18;7.45;;;;;;;4.66;68.58;100034.09;4223521;28;32743;-81
2021/04/15 03:44:40;;;;;;;15.00;8.27;;;;;;;4.88;68.38;100035.62;4186206;34;34922;-96
2021/04/15 03:47:28;;;;;;;12.25;8.07;;;;;;;4.67;68.28;100037.59;4149548;34;34400;-83
2021/04/15 03:50:05;;;;;;;13.02;8.95;;;;;;;4.58;68.81;100033.94;4159229;34;33825;-81
2021/04/15 03:52:52;;;;;;;13.77;9.38;;;;;;;4.90;68.14;100033.63;4154013;34;33568;-89
2021/04/15 03:55:29;;;;;;;10.65;8.75;;;;;;;4.89;67.75;100029.25;4154686;34;33514;-84
2021/04/15 03:58:26;;;;;;;12.30;9.80;;;;;;;4.68;68.58;100033.94;4152677;34;35953;-81
2021/04/15 04:01:05;;;;;;;15.23;9.38;;;;;;;4.68;68.66;100034.78;4161274;34;33892;-82
2021/04/15 04:03:40;;;;;;;13.82;8.70;;;;;;;4.74;68.53;100034.19;4152582;34;32968;-82
2021/04/15 04:06:12;;;;;;;11.02;9.05;;;;;;;4.82;67.92;100036.19;4157754;34;33574;-96
2021/04/15 04:09:05;;;;;;;10.95;8.88;;;;;;;4.87;68.05;100041.13;4179458;34;33919;-95
2021/04/15 04:11:38;;;;;;;12.27;10.02;;;;;;;4.84;67.81;100039.56;4243661;28;34942;-83
2021/04/15 04:14:30;;;;;;;14.15;9.32;;;;;;;4.99;67.41;100037.28;4219973;34;33241;-83
2021/04/15 04:17:31;;;;;;;13.07;9.10;;;;;;;5.02;67.33;100039.66;4324077;28;32721;-83
2021/04/15 04:20:04;;;;;;;11.20;9.63;;;;;;;5.15;67.32;100041.19;4203003;34;33993;-83
2021/04/15 04:22:55;;;;;;;14.02;8.73;;;;;;;5.06;66.93;100046.44;4196582;34;35230;-84
2021/04/15 04:25:34;;;;;;;11.10;8.35;;;;;;;5.27;66.41;100048.09;4211295;33;33183;-95
2021/04/15 04:28:24;;;;;;;13.62;9.25;;;;;;;5.15;67.01;100050.09;4197054;34;35141;-95
2021/04/15 04:31:04;;;;;;;12.40;8.48;;;;;;;5.19;66.56;100053.31;4196470;34;33755;-82
2021/04/15 04:33:46;;;;;;;13.05;9.90;;;;;;;4.96;66.77;100059.00;4205638;34;33632;-81
2021/04/15 04:36:24;;;;;;;13.95;8.60;;;;;;;4.84;67.55;100049.44;4198618;34;33680;-82
2021/04/15 04:38:57;;;;;;;16.23;9.38;;;;;;;4.83;67.97;100053.09;4197694;34;34393;-96
2021/04/15 04:41:53;;;;;;;12.23;9.73;;;;;;;4.99;67.45;100058.72;4198354;34;33951;-96
2021/04/15 04:44:35;;;;;;;12.15;9.20;;;;;;;5.10;67.22;100050.53;4195521;34;33718;-96
2021/04/15 04:47:35;;;;;;;11.82;9.20;;;;;;;5.18;66.46;100062.34;4210505;28;34861;31
2021/04/15 04:53:48;;;;;;;8.68;7.12;;;;;;;5.19;67.02;100058.66;4208177;34;20185;-88
2021/04/15 04:56:37;;;;;;;11.77;8.35;;;;;;;5.03;67.31;100065.47;4199085;34;34752;-85
2021/04/15 04:59:16;;;;;;;13.45;8.75;;;;;;;5.19;66.78;100059.50;4189823;34;34245;-83
2021/04/15 05:01:50;;;;;;;10.82;7.53;;;;;;;5.34;65.69;100061.72;4246187;28;35453;-83
2021/04/15 05:04:23;;;;;;;12.18;7.20;;;;;;;5.11;66.43;100067.44;4216094;33;34648;-82
2021/04/15 05:07:02;;;;;;;14.00;8.68;;;;;;;5.32;66.18;100067.25;4210711;33;33927;-83
2021/04/15 05:09:49;;;;;;;10.87;7.83;;;;;;;5.22;65.98;100063.75;4367858;28;33481;31
2021/04/15 05:16:16;;;;;;;12.10;7.53;;;;;;;5.50;65.25;100059.28;4211890;34;20776;-86
2021/04/15 05:22:50;;;;;;;10.25;7.22;;;;;;;5.18;66.35;100051.63;4483761;28;20113;-96
2021/04/15 05:25:52;;;;;;;12.48;7.37;;;;;;;5.40;65.88;100056.63;4590750;28;32340;-83
2021/04/15 05:28:38;;;;;;;16.48;8.15;;;;;;;5.61;65.07;100051.06;4300070;28;33996;31
2021/04/15 05:31:42;;;;;;;12.35;6.97;;;;;;;5.37;66.07;100051.56;4254842;28;34431;-88
2021/04/15 05:34:25;;;;;;;10.13;6.95;;;;;;;5.04;66.83;100055.59;4310488;28;31934;-96
2021/04/15 05:37:18;;;;;;;13.38;7.25;;;;;;;5.01;66.09;100051.38;4193120;34;33739;-96
2021/04/15 05:40:37;;;;;;;8.80;6.53;;;;;;;4.99;66.63;100056.03;4425426;28;20176;-96
2021/04/15 05:57:15;;;;;;;12.70;6.65;;;;;;;5.77;64.10;100058.44;4791582;28;20102;-96
2021/04/15 06:00:20;;;;;;;10.20;6.47;;;;;;;5.71;64.12;100059.06;4151525;34;32764;-89
2021/04/15 06:03:24;;;;;;;7.87;6.12;;;;;;;5.83;63.76;100057.03;4133307;34;33324;-83
2021/04/15 06:06:16;;;;;;;10.15;6.87;;;;;;;5.76;63.03;100062.16;4145248;34;33746;-88
2021/04/15 06:08:50;;;;;;;9.13;6.35;;;;;;;5.62;64.27;100057.25;4147319;34;33933;-86
2021/04/15 06:11:49;;;;;;;10.00;6.28;;;;;;;5.79;63.64;100047.56;4135012;34;34929;-82
2021/04/15 06:14:32;;;;;;;8.80;6.40;;;;;;;5.73;62.86;100062.41;4154886;34;32717;-84
2021/04/15 06:17:27;;;;;;;12.43;5.70;;;;;;;5.99;62.44;100061.78;4144143;34;35487;-88
2021/04/15 06:20:21;;;;;;;11.18;7.10;;;;;;;6.14;62.39;100049.53;4150605;34;34240;-84
2021/04/15 06:23:02;;;;;;;7.55;5.30;;;;;;;6.33;61.65;100047.69;4178242;34;34464;-84
2021/04/15 06:25:38;;;;;;;9.82;6.07;;;;;;;6.02;62.03;100050.75;4167444;34;33753;-84
2021/04/15 06:28:17;;;;;;;8.38;5.78;;;;;;;6.24;62.67;100043.25;4158772;34;34528;-84
2021/04/15 06:31:24;;;;;;;12.52;5.60;;;;;;;6.43;60.69;100032.34;4169154;34;33768;-85
2021/04/15 06:34:00;;;;;;;9.90;7.00;;;;;;;6.16;62.52;100031.41;4189334;34;33571;-85
2021/04/15 06:37:26;;;;;;;11.75;6.25;;;;;;;6.31;61.98;100031.75;4164572;34;33477;-93
2021/04/15 06:40:21;;;;;;;7.15;5.12;;;;;;;6.29;62.98;100036.44;4160385;34;36969;-88
2021/04/15 06:43:12;;;;;;;8.23;5.78;;;;;;;6.67;61.78;100052.38;4177288;34;33437;-91
2021/04/15 06:46:30;;;;;;;8.82;5.80;;;;;;;6.39;61.10;100044.41;4152402;34;32769;-86
2021/04/15 06:49:12;;;;;;;7.77;5.20;;;;;;;6.43;61.62;100042.25;4161575;34;33638;-86
2021/04/15 06:51:50;;;;;;;8.75;5.55;;;;;;;6.58;61.35;100042.56;4174977;34;33585;-87
2021/04/15 06:55:06;;;;;;;8.35;5.25;;;;;;;6.53;60.98;100043.87;4181639;34;34653;-86
2021/04/15 06:58:09;;;;;;;7.80;5.72;;;;;;;6.49;61.01;100047.03;4167091;34;33490;-85
2021/04/15 07:00:56;;;;;;;8.80;5.90;;;;;;;6.46;62.40;100031.22;4177260;34;33786;-89
2021/04/15 07:03:57;;;;;;;8.75;5.82;;;;;;;6.94;61.08;100043.38;4173686;34;33869;-85
2021/04/15 07:07:09;;;;;;;7.00;4.90;;;;;;;6.79;60.41;100039.56;4197179;34;33481;-85
2021/04/15 07:09:54;;;;;;;7.93;4.97;;;;;;;6.90;62.45;100044.66;4176302;34;33642;-93
2021/04/15 07:13:05;;;;;;;6.85;5.25;;;;;;;6.81;60.57;100041.09;4165802;34;37084;-85
2021/04/15 07:15:59;;;;;;;7.82;5.12;;;;;;;6.73;60.84;100049.06;4191347;34;33666;-91
2021/04/15 07:18:52;;;;;;;8.27;5.37;;;;;;;6.94;60.36;100047.91;4182467;34;33470;-85
2021/04/15 07:21:47;;;;;;;9.07;5.30;;;;;;;7.46;58.68;100047.06;4165428;34;34019;-96
2021/04/15 07:24:51;;;;;;;7.60;5.93;;;;;;;7.24;60.42;100052.84;4176678;34;33710;-96
2021/04/15 07:27:51;;;;;;;8.95;5.57;;;;;;;7.51;59.57;100047.41;4174884;34;35218;-96
2021/04/15 07:30:30;;;;;;;8.13;5.43;;;;;;;7.14;59.15;100040.47;4175090;34;34500;-86
2021/04/15 07:33:28;;;;;;;7.35;5.15;;;;;;;7.67;58.29;100042.12;4176224;34;33858;-85
2021/04/15 07:36:34;;;;;;;5.93;4.95;;;;;;;7.85;57.91;100047.41;4185088;34;33741;-84
2021/04/15 07:39:22;;;;;;;8.60;5.40;;;;;;;7.56;58.27;100051.31;4184059;34;33354;-85
2021/04/15 07:42:19;;;;;;;8.80;5.43;;;;;;;7.75;58.23;100055.62;4198025;34;34309;-94
2021/04/15 07:45:07;;;;;;;6.03;4.85;;;;;;;7.59;57.49;100061.75;4198141;34;33315;-95
2021/04/15 07:48:23;;;;;;;9.35;4.93;;;;;;;8.00;59.04;100060.25;4178752;34;34369;-85
2021/04/15 07:51:34;;;;;;;8.30;4.65;;;;;;;8.31;55.98;100055.13;4168507;34;33273;-96
2021/04/15 07:54:32;;;;;;;5.43;4.28;;;;;;;8.54;56.09;100058.06;4196133;34;34431;-96
2021/04/15 07:57:20;;;;;;;7.43;5.40;;;;;;;8.56;54.62;100057.87;4162482;34;34164;-96
2021/04/15 08:00:34;;;;;;;7.80;5.37;;;;;;;8.26;55.13;100063.72;4174631;34;34853;-87
2021/04/15 08:03:26;;;;;;;6.97;5.12;;;;;;;8.30;56.28;100061.50;4183635;34;35440;-95
2021/04/15 08:06:47;;;;;;;7.03;4.60;;;;;;;8.39;55.37;100057.81;4162914;34;33504;-83
2021/04/15 08:09:55;;;;;;;7.80;5.18;;;;;;;8.60;55.40;100059.25;4153414;34;33977;-87
2021/04/15 08:12:58;;;;;;;5.97;4.72;;;;;;;8.53;55.24;100066.28;4173749;34;34496;-87
2021/04/15 08:15:58;;;;;;;7.57;4.75;;;;;;;8.62;54.43;100062.59;4175708;34;33715;-84
2021/04/15 08:18:39;;;;;;;7.72;5.22;;;;;;;8.63;56.29;100070.50;4185427;34;33503;-83
2021/04/15 08:21:23;;;;;;;7.40;4.62;;;;;;;8.13;59.09;100063.34;4175087;34;32827;-83
2021/04/15 08:24:08;;;;;;;7.43;5.47;;;;;;;8.28;54.35;100077.84;4174379;34;34515;-83
2021/04/15 08:27:17;;;;;;;7.43;4.95;;;;;;;8.47;55.60;100062.41;4176064;34;32929;-91
2021/04/15 08:30:26;;;;;;;4.95;4.35;;;;;;;8.73;55.59;100075.75;4175344;34;34647;-90
2021/04/15 08:33:33;;;;;;;5.93;3.90;;;;;;;8.68;54.32;100071.88;4174685;34;33106;-91
2021/04/15 08:36:17;;;;;;;9.63;5.22;;;;;;;8.06;54.52;100078.44;4153628;34;35556;-91
2021/04/15 08:39:30;;;;;;;6.10;5.20;;;;;;;7.86;57.31;100076.03;4186872;34;34225;-96
2021/04/15 08:42:20;;;;;;;6.28;5.10;;;;;;;8.31;56.82;100065.91;4186099;34;33254;-91
2021/04/15 08:45:13;;;;;;;8.07;4.93;;;;;;;8.55;56.39;100077.75;4174298;34;33910;-90
2021/04/15 08:48:10;;;;;;;8.07;4.53;;;;;;;8.34;55.36;100075.47;4171127;34;35010;-83
2021/04/15 08:51:09;;;;;;;7.80;5.05;;;;;;;8.22;54.85;100081.19;4170167;34;35084;-83
2021/04/15 08:54:04;;;;;;;10.50;5.50;;;;;;;8.16;56.89;100068.38;4163888;34;33881;-84
2021/04/15 08:56:46;;;;;;;6.35;4.62;;;;;;;8.88;56.98;100078.63;4187327;28;35003;-91
2021/04/15 08:59:21;;;;;;;7.80;5.00;;;;;;;9.31;54.06;100083.81;4172355;34;33768;-88
2021/04/15 09:02:16;;;;;;;8.43;5.20;;;;;;;9.19;53.48;100081.47;4212167;34;33822;-91
2021/04/15 09:05:02;;;;;;;9.25;5.62;;;;;;;8.57;55.38;100073.88;4214168;33;33792;-90
2021/04/15 09:08:00;;;;;;;6.90;5.10;;;;;;;8.76;56.49;100069.19;4180667;34;34660;-83
2021/04/15 09:11:05;;;;;;;6.37;4.90;;;;;;;8.79;53.41;100082.34;4203899;34;33514;-83
2021/04/15 09:14:28;;;;;;;6.87;4.90;;;;;;;8.35;56.69;100083.41;4191244;34;34137;-96
2021/04/15 09:17:04;;;;;;;10.02;4.70;;;;;;;8.90;54.46;100083.84;4215225;34;34893;-91
2021/04/15 09:20:00;;;;;;;5.70;4.50;;;;;;;9.19;52.36;100084.19;4212301;33;34056;-91
2021/04/15 09:23:14;;;;;;;8.45;4.90;;;;;;;8.27;54.48;100091.47;4176453;34;33227;-84
2021/04/15 09:26:06;;;;;;;6.80;4.25;;;;;;;8.47;55.02;100090.22;4196499;34;33900;-91
2021/04/15 09:28:40;;;;;;;6.28;5.05;;;;;;;8.59;54.66;100085.34;4171154;34;35706;-91
2021/04/15 09:31:52;;;;;;;9.57;4.85;;;;;;;8.72;53.15;100084.00;4185218;34;33600;-83
2021/04/15 09:35:14;;;;;;;9.20;5.12;;;;;;;8.34;54.57;100091.63;4211561;33;33711;-91
2021/04/15 09:38:32;;;;;;;7.40;4.20;;;;;;;7.93;55.21;100085.13;4212840;34;33805;-92
2021/04/15 09:41:10;;;;;;;11.12;5.03;;;;;;;8.16;55.79;100076.47;4203637;34;33465;-96
2021/04/15 09:44:18;;;;;;;6.53;5.70;;;;;;;8.73;57.02;100080.31;4204699;34;32721;-90
2021/04/15 09:47:09;;;;;;;6.82;4.53;;;;;;;8.71;54.35;100082.31;4203176;34;33689;-84
2021/04/15 09:50:05;;;;;;;5.30;3.97;;;;;;;8.62;54.95;100079.62;4202571;34;33688;-95
2021/04/15 09:52:49;;;;;;;6.80;4.53;;;;;;;8.83;52.85;100075.56;4202193;34;35078;-96
2021/04/15 09:55:39;;;;;;;6.15;4.60;;;;;;;8.95;55.36;100074.25;4204796;34;32480;-90
2021/04/15 09:58:45;;;;;;;4.97;4.20;;;;;;;9.33;54.29;100069.16;4216670;34;37956;-83
2021/04/15 10:01:28;;;;;;;5.35;4.37;;;;;;;9.64;50.67;100071.13;4205674;33;33687;-90
2021/04/15 10:04:17;;;;;;;5.53;4.00;;;;;;;9.32;52.06;100075.53;4191272;34;33651;-90
2021/04/15 10:06:58;;;;;;;5.68;3.78;;;;;;;8.88;54.06;100062.47;4203623;34;33526;-82
2021/04/15 10:10:08;;;;;;;6.18;3.95;;;;;;;8.80;52.21;100067.84;4180592;34;35387;-95
2021/04/15 10:13:31;;;;;;;7.72;3.72;;;;;;;9.05;52.88;100067.84;4216363;34;33372;-92
2021/04/15 10:16:13;;;;;;;;;;;;;;;9.47;52.21;100067.59;4201943;34;33743;-89
2021/04/15 10:19:07;;;;;;;6.03;5.22;;;;;;;9.52;53.04;100054.44;4211828;34;32960;-88
2021/04/15 10:22:00;;;;;;;5.07;3.78;;;;;;;9.64;52.14;100060.31;4212140;34;33443;-96
2021/04/15 10:24:51;;;;;;;7.80;4.68;;;;;;;9.32;52.82;100059.38;4190607;34;35811;-95
2021/04/15 10:28:05;;;;;;;6.00;4.03;;;;;;;8.96;53.02;100054.34;4178954;34;33637;-95
2021/04/15 10:31:07;;;;;;;3.75;3.12;;;;;;;9.33;51.82;100060.22;4201261;34;33698;-92
2021/04/15 10:33:48;;;;;;;3.78;2.80;;;;;;;9.49;50.02;100053.94;4189341;34;34896;-93
2021/04/15 10:36:42;;;;;;;5.97;4.12;;;;;;;9.75;51.82;100056.41;4208253;34;33573;-96
2021/04/15 10:39:43;;;;;;;5.00;3.22;;;;;;;9.88;50.65;100036.94;4185281;34;34130;-95
2021/04/15 10:42:50;;;;;;;3.80;2.97;;;;;;;9.05;53.15;100040.87;4228283;33;35183;-95
2021/04/15 10:45:59;;;;;;;4.68;3.15;;;;;;;8.85;54.33;100046.63;4217658;34;33640;-91
2021/04/15 10:48:55;;;;;;;4.35;3.92;;;;;;;8.33;56.37;100047.72;4205121;34;33819;-95
2021/04/15 10:51:42;;;;;;;5.57;3.78;;;;;;;8.37;58.77;100045.53;4223271;33;33941;-87
2021/04/15 10:54:57;;;;;;;17.42;9.05;;;;;;;8.66;54.44;100037.84;4193414;33;33884;-96
2021/04/15 10:57:45;;;;;;;8.88;5.80;;;;;;;9.36;54.65;100036.44;4158606;34;34365;-85
2021/04/15 11:00:39;;;;;;;7.10;4.72;;;;;;;9.88;51.24;100029.69;4144700;34;33629;-87
2021/04/15 11:03:44;;;;;;;4.60;3.47;;;;;;;10.29;52.17;100028.62;4150399;34;33685;-96
2021/04/15 11:06:37;;;;;;;3.90;2.90;;;;;;;10.50;52.48;100024.47;4198542;34;33324;-94
2021/04/15 11:13:09;;;;;;;5.87;3.47;;;;;;;10.05;49.71;100038.53;4178260;34;32929;-95
2021/04/15 11:16:04;;;;;;;3.58;3.20;;;;;;;9.56;52.54;100054.94;4178500;34;33666;-96
2021/04/15 11:18:43;;;;;;;4.85;3.12;;;;;;;8.81;55.99;100050.66;4176679;34;33282;-85
2021/04/15 11:21:27;;;;;;;4.65;3.25;;;;;;;8.54;55.18;100055.34;4170526;34;33743;-83
2021/04/15 11:24:49;;;;;;;4.93;3.37;;;;;;;8.16;56.95;100052.22;4173215;34;33816;-96
2021/04/15 11:27:51;;;;;;;4.28;3.37;;;;;;;8.23;57.76;100061.34;4178263;34;34601;-87
2021/04/15 11:34:11;;;;;;;6.50;3.25;;;;;;;9.59;54.92;100049.19;4183207;34;34033;-91
2021/04/15 11:37:07;;;;;;;4.90;3.17;;;;;;;9.86;54.22;100049.75;4203161;34;33211;-86
2021/04/15 11:39:40;;;;;;;3.08;2.78;;;;;;;9.49;56.58;100048.53;4195361;33;34655;-84
2021/04/15 11:42:15;;;;;;;3.78;2.92;;;;;;;9.60;55.58;100040.09;4207010;33;33886;-84
2021/04/15 11:44:53;;;;;;;4.80;3.42;;;;;;;9.41;53.81;100035.09;4198021;33;34606;-84
2021/04/15 11:47:28;;;;;;;3.42;2.72;;;;;;;9.31;54.69;100041.50;4209141;33;34511;-93
2021/04/15 11:50:28;;;;;;;2.92;2.22;;;;;;;9.14;56.10;100045.25;4176745;34;32519;-96
2021/04/15 11:53:39;;;;;;;3.92;1.80;;;;;;;8.88;56.85;100040.91;4178261;34;33120;-83
2021/04/15 11:56:20;;;;;;;3.17;2.37;;;;;;;8.70;54.14;100029.41;4176577;34;34200;-89
2021/04/15 11:59:15;;;;;;;2.08;1.85;;;;;;;8.39;59.48;100041.66;4192250;34;33869;-95
2021/04/15 12:01:52;;;;;;;2.85;1.87;;;;;;;8.43;57.40;100032.25;4175861;34;33948;-95
2021/04/15 12:04:27;;;;;;;2.70;1.98;;;;;;;8.33;55.85;100036.13;4176138;34;33196;-95
2021/04/15 12:07:21;;;;;;;2.90;1.75;;;;;;;8.41;56.51;100028.03;4186989;34;33232;-93
2021/04/15 12:10:05;;;;;;;2.47;1.90;;;;;;;8.68;55.47;100034.97;4165581;34;33592;-92
2021/04/15 12:12:48;;;;;;;3.75;2.22;;;;;;;8.91;56.06;100032.47;4186356;34;33590;-89
2021/04/15 12:15:32;;;;;;;2.87;2.10;;;;;;;9.43;54.16;100033.91;4161588;34;34430;-84
2021/04/15 12:18:33;;;;;;;6.62;1.65;;;;;;;9.34;53.44;100032.22;4174694;34;33599;-93
2021/04/15 12:21:30;;;;;;;3.50;1.73;;;;;;;8.98;53.09;100036.19;4185772;34;33707;-84
2021/04/15 12:24:09;;;;;;;2.17;1.75;;;;;;;8.92;51.98;100026.06;4175821;34;33238;-95
2021/04/15 12:26:50;;;;;;;4.50;1.50;;;;;;;9.02;53.46;100037.50;4176056;34;33941;-91
2021/04/15 12:29:38;;;;;;;3.00;1.30;;;;;;;9.58;52.29;100034.03;4185767;34;33705;-85
2021/04/15 12:32:50;;;;;;;2.00;1.70;;;;;;;9.53;51.26;100033.69;4161899;34;34909;-86
2021/04/15 12:35:42;;;;;;;2.83;1.27;;;;;;;9.22;50.29;100041.69;4170972;34;35686;-83
2021/04/15 12:38:21;;;;;;;1.50;1.40;;;;;;;9.22;49.40;100031.75;4184140;34;32922;-90
2021/04/15 12:41:17;;;;;;;6.03;1.48;;;;;;;9.52;51.79;100032.84;4164644;34;34636;-86
2021/04/15 12:44:09;;;;;;;3.75;1.20;;;;;;;10.46;47.24;100017.72;4178391;34;34484;-95
2021/04/15 12:46:59;;;;;;;1.37;1.17;;;;;;;10.50;46.63;100021.75;4183578;34;34368;-96
2021/04/15 12:49:37;;;;;;;1.52;0.95;;;;;;;9.61;48.85;100030.97;4199695;34;33076;-94
2021/04/15 12:52:17;;;;;;;1.10;1.00;;;;;;;9.97;49.53;100029.63;4184935;34;33049;-86
2021/04/15 12:54:56;;;;;;;2.83;1.42;;;;;;;10.47;47.74;100014.00;4191679;34;34928;-96
2021/04/15 12:57:31;;;;;;;2.00;1.27;;;;;;;10.70;46.77;100009.44;4197477;34;32895;-94
2021/04/15 13:00:43;;;;;;;1.15;0.88;;;;;;;10.57;47.05;100004.62;4181724;34;33331;-96
2021/04/15 13:03:32;;;;;;;1.92;1.05;;;;;;;9.86;47.84;100026.28;4201204;34;34975;-96
2021/04/15 13:06:14;;;;;;;1.85;1.25;;;;;;;9.48;48.08;100025.28;4176339;34;33033;-84
2021/04/15 13:08:49;;;;;;;3.05;1.37;;;;;;;9.48;48.32;100014.50;4167458;34;35686;-90
2021/04/15 13:11:27;;;;;;;2.65;1.17;;;;;;;9.20;49.48;100014.88;4178320;34;33622;-90
2021/04/15 13:14:04;;;;;;;2.12;1.60;;;;;;;9.13;48.09;100009.34;4201852;34;33777;-96
2021/04/15 13:16:48;;;;;;;8.75;2.00;;;;;;;8.37;52.57;100003.28;4167863;34;34721;-89
2021/04/15 13:19:24;;;;;;;2.75;1.90;;;;;;;8.68;50.03;100004.50;4179747;34;34430;-96
2021/04/15 13:22:01;;;;;;;1.90;1.62;;;;;;;8.53;51.39;99999.78;4214120;34;33080;-90
2021/04/15 13:24:48;;;;;;;4.12;1.75;;;;;;;10.67;46.79;99998.97;4191836;34;33396;-91
2021/04/15 13:27:34;;;;;;;1.47;1.10;;;;;;;12.08;43.27;99993.72;4214455;34;33704;-90
2021/04/15 13:30:20;;;;;;;3.67;1.40;;;;;;;13.13;39.52;99990.47;4208500;34;34332;-96
2021/04/15 13:33:30;;;;;;;3.12;2.28;;;;;;;12.95;41.39;99982.81;4206455;34;33686;-92
2021/04/15 13:36:02;;;;;;;2.17;1.62;;;;;;;13.98;43.25;99995.75;4193056;34;33769;-92
2021/04/15 13:39:09;;;;;;;2.45;1.52;;;;;;;15.11;36.11;99982.31;4182168;34;34142;-92
2021/04/15 13:42:08;;;;;;;2.53;1.70;;;;;;;15.15;35.53;99980.88;4188523;34;35172;-95
2021/04/15 13:44:53;;;;;;;1.67;1.58;;;;;;;13.78;37.74;99991.09;4177176;34;34117;-96
2021/04/15 13:47:45;;;;;;;2.50;1.90;;;;;;;12.29;39.87;99983.91;4166030;34;33084;-94
2021/04/15 13:51:06;;;;;;;2.45;1.50;;;;;;;11.64;42.37;99983.78;4171353;34;34829;-91
2021/04/15 13:53:48;;;;;;;2.12;1.50;;;;;;;11.72;40.91;99983.69;4151564;34;32250;-91
2021/04/15 13:56:33;;;;;;;2.72;1.60;;;;;;;11.19;40.83;99991.06;4175382;34;32709;-92
2021/04/15 13:59:35;;;;;;;2.10;1.85;;;;;;;10.60;43.15;99987.22;4177670;34;34613;-96